sensor_id;sensor_type;location;lat;lon;timestamp;pressure;altitude;pressure_sealevel;temperature;humidity
22755;BME280;11544;42.020;23.094;2023-02-21T00:02:25;97790.50;;;4.06;74.67
22755;BME280;11544;42.020;23.094;2023-02-21T00:05:10;97799.94;;;3.90;75.91
22755;BME280;11544;42.020;23.094;2023-02-21T00:07:56;97794.81;;;4.02;76.45
22755;BME280;11544;42.020;23.094;2023-02-21T00:10:42;97797.34;;;3.51;76.42
22755;BME280;11544;42.020;23.094;2023-02-21T00:13:27;97785.34;;;3.96;75.54
22755;BME280;11544;42.020;23.094;2023-02-21T00:16:15;97774.13;;;4.20;75.65
22755;BME280;11544;42.020;23.094;2023-02-21T00:19:02;97793.06;;;3.82;75.94
22755;BME280;11544;42.020;23.094;2023-02-21T00:21:48;97795.66;;;3.84;76.42
22755;BME280;11544;42.020;23.094;2023-02-21T00:24:34;97799.94;;;3.90;76.71
22755;BME280;11544;42.020;23.094;2023-02-21T00:27:20;97793.09;;;4.12;76.64
22755;BME280;11544;42.020;23.094;2023-02-21T00:30:06;97793.94;;;3.80;77.39
22755;BME280;11544;42.020;23.094;2023-02-21T00:32:54;97800.75;;;3.52;79.10
22755;BME280;11544;42.020;23.094;2023-02-21T00:35:40;97796.50;;;3.55;80.77
22755;BME280;11544;42.020;23.094;2023-02-21T00:38:26;97789.59;;;3.39;82.15
22755;BME280;11544;42.020;23.094;2023-02-21T00:41:13;97789.47;;;3.07;82.16
22755;BME280;11544;42.020;23.094;2023-02-21T00:44:01;97795.38;;;2.80;84.61
22755;BME280;11544;42.020;23.094;2023-02-21T00:46:47;97799.72;;;2.88;85.41
22755;BME280;11544;42.020;23.094;2023-02-21T00:49:50;97795.59;;;3.36;85.16
22755;BME280;11544;42.020;23.094;2023-02-21T00:52:59;97785.34;;;4.04;81.99
22755;BME280;11544;42.020;23.094;2023-02-21T00:55:44;97782.75;;;3.82;81.05
22755;BME280;11544;42.020;23.094;2023-02-21T00:58:33;97779.31;;;4.00;79.50
22755;BME280;11544;42.020;23.094;2023-02-21T01:01:19;97784.34;;;3.16;80.59
22755;BME280;11544;42.020;23.094;2023-02-21T01:04:06;97776.56;;;2.91;83.01
22755;BME280;11544;42.020;23.094;2023-02-21T01:06:51;97763.84;;;3.62;81.71
22755;BME280;11544;42.020;23.094;2023-02-21T01:09:40;97765.44;;;3.14;82.60
22755;BME280;11544;42.020;23.094;2023-02-21T01:12:26;97770.56;;;2.94;82.48
22755;BME280;11544;42.020;23.094;2023-02-21T01:15:14;97771.50;;;3.19;83.27
22755;BME280;11544;42.020;23.094;2023-02-21T01:18:02;97767.22;;;3.29;83.34
22755;BME280;11544;42.020;23.094;2023-02-21T01:20:48;97758.44;;;2.71;83.61
22755;BME280;11544;42.020;23.094;2023-02-21T01:23:34;97760.78;;;2.31;85.91
22755;BME280;11544;42.020;23.094;2023-02-21T01:26:20;97749.97;;;3.09;85.58
22755;BME280;11544;42.020;23.094;2023-02-21T01:29:05;97742.28;;;3.23;83.70
22755;BME280;11544;42.020;23.094;2023-02-21T01:31:51;97740.59;;;3.19;83.94
22755;BME280;11544;42.020;23.094;2023-02-21T01:34:37;97732.78;;;2.88;83.62
22755;BME280;11544;42.020;23.094;2023-02-21T01:37:23;97729.38;;;3.05;83.78
22755;BME280;11544;42.020;23.094;2023-02-21T01:40:13;97732.03;;;3.34;82.66
22755;BME280;11544;42.020;23.094;2023-02-21T01:42:59;97730.31;;;3.45;82.34
22755;BME280;11544;42.020;23.094;2023-02-21T01:45:50;97728.47;;;2.95;82.06
22755;BME280;11544;42.020;23.094;2023-02-21T01:48:36;97726.81;;;3.09;84.20
22755;BME280;11544;42.020;23.094;2023-02-21T01:51:26;97719.81;;;2.71;84.36
22755;BME280;11544;42.020;23.094;2023-02-21T01:54:12;97713.09;;;3.12;84.47
22755;BME280;11544;42.020;23.094;2023-02-21T01:57:03;97710.50;;;3.16;83.46
22755;BME280;11544;42.020;23.094;2023-02-21T01:59:51;97709.53;;;2.70;84.28
22755;BME280;11544;42.020;23.094;2023-02-21T02:02:46;97714.66;;;2.67;86.13
22755;BME280;11544;42.020;23.094;2023-02-21T02:05:37;97713.09;;;3.26;84.38
22755;BME280;11544;42.020;23.094;2023-02-21T02:08:27;97705.25;;;2.72;86.16
22755;BME280;11544;42.020;23.094;2023-02-21T02:11:32;97709.44;;;2.44;87.54
22755;BME280;11544;42.020;23.094;2023-02-21T02:36:41;97686.38;;;2.76;88.35
22755;BME280;11544;42.020;23.094;2023-02-21T02:39:23;97691.41;;;2.45;89.06
22755;BME280;11544;42.020;23.094;2023-02-21T02:42:18;97693.69;;;1.90;91.69
22755;BME280;11544;42.020;23.094;2023-02-21T02:45:17;97689.69;;;2.47;91.74
22755;BME280;11544;42.020;23.094;2023-02-21T02:47:51;97693.19;;;2.59;91.88
22755;BME280;11544;42.020;23.094;2023-02-21T02:50:21;97699.81;;;2.09;91.99
22755;BME280;11544;42.020;23.094;2023-02-21T02:52:51;97695.63;;;2.29;92.41
22755;BME280;11544;42.020;23.094;2023-02-21T02:55:40;97699.84;;;2.18;92.99
22755;BME280;11544;42.020;23.094;2023-02-21T02:58:09;97694.78;;;2.32;92.22
22755;BME280;11544;42.020;23.094;2023-02-21T03:00:41;97693.94;;;2.41;93.07
22755;BME280;11544;42.020;23.094;2023-02-21T03:11:28;97683.00;;;2.97;88.06
22755;BME280;11544;42.020;23.094;2023-02-21T03:14:06;97682.16;;;3.16;86.59
22755;BME280;11544;42.020;23.094;2023-02-21T03:16:49;97684.44;;;2.26;88.68
22755;BME280;11544;42.020;23.094;2023-02-21T03:19:21;97694.66;;;2.06;91.26
22755;BME280;11544;42.020;23.094;2023-02-21T03:21:54;97683.47;;;2.02;92.52
22755;BME280;11544;42.020;23.094;2023-02-21T03:24:25;97692.09;;;2.09;94.35
22755;BME280;11544;42.020;23.094;2023-02-21T03:26:58;97692.88;;;1.99;94.95
22755;BME280;11544;42.020;23.094;2023-02-21T03:29:26;97699.72;;;1.95;94.77
22755;BME280;11544;42.020;23.094;2023-02-21T03:31:57;97694.56;;;1.95;95.44
22755;BME280;11544;42.020;23.094;2023-02-21T03:34:38;97699.66;;;1.87;96.16
22755;BME280;11544;42.020;23.094;2023-02-21T03:37:07;97699.78;;;2.07;96.91
22755;BME280;11544;42.020;23.094;2023-02-21T03:39:34;97710.88;;;1.99;95.96
22755;BME280;11544;42.020;23.094;2023-02-21T03:42:01;97705.41;;;1.53;96.93
22755;BME280;11544;42.020;23.094;2023-02-21T03:44:28;97698.06;;;2.03;97.08
22755;BME280;11544;42.020;23.094;2023-02-21T03:46:55;97693.00;;;2.19;94.13
22755;BME280;11544;42.020;23.094;2023-02-21T03:49:23;97693.84;;;2.19;94.58
22755;BME280;11544;42.020;23.094;2023-02-21T03:51:49;97697.91;;;1.82;95.25
22755;BME280;11544;42.020;23.094;2023-02-21T03:54:16;97703.06;;;1.86;96.10
22755;BME280;11544;42.020;23.094;2023-02-21T03:56:44;97703.31;;;2.26;94.87
22755;BME280;11544;42.020;23.094;2023-02-21T03:59:10;97701.47;;;1.99;94.15
22755;BME280;11544;42.020;23.094;2023-02-21T04:01:37;97704.03;;;2.02;94.73
22755;BME280;11544;42.020;23.094;2023-02-21T04:04:06;97709.31;;;2.25;93.67
22755;BME280;11544;42.020;23.094;2023-02-21T04:06:33;97708.59;;;2.51;92.83
22755;BME280;11544;42.020;23.094;2023-02-21T04:09:02;97708.34;;;2.02;91.73
22755;BME280;11544;42.020;23.094;2023-02-21T04:11:30;97705.19;;;2.50;91.41
22755;BME280;11544;42.020;23.094;2023-02-21T04:13:57;97709.75;;;1.61;93.18
22755;BME280;11544;42.020;23.094;2023-02-21T04:16:23;97697.28;;;2.15;94.67
22755;BME280;11544;42.020;23.094;2023-02-21T04:18:51;97692.94;;;2.09;93.18
22755;BME280;11544;42.020;23.094;2023-02-21T04:21:28;97703.00;;;1.74;94.69
22755;BME280;11544;42.020;23.094;2023-02-21T04:23:55;97702.06;;;1.67;96.76
22755;BME280;11544;42.020;23.094;2023-02-21T04:26:22;97700.69;;;2.11;95.51
22755;BME280;11544;42.020;23.094;2023-02-21T04:28:50;97710.63;;;1.65;96.51
22755;BME280;11544;42.020;23.094;2023-02-21T04:31:18;97714.91;;;1.64;97.21
22755;BME280;11544;42.020;23.094;2023-02-21T04:33:45;97714.38;;;2.08;97.57
22755;BME280;11544;42.020;23.094;2023-02-21T04:36:12;97706.78;;;2.33;94.19
22755;BME280;11544;42.020;23.094;2023-02-21T04:38:39;97708.88;;;1.56;96.47
22755;BME280;11544;42.020;23.094;2023-02-21T04:41:06;97699.63;;;1.83;97.22
22755;BME280;11544;42.020;23.094;2023-02-21T04:43:33;97704.41;;;1.35;98.50
22755;BME280;11544;42.020;23.094;2023-02-21T04:46:01;97708.78;;;1.48;99.65
22755;BME280;11544;42.020;23.094;2023-02-21T04:48:31;97715.66;;;1.50;99.67
22755;BME280;11544;42.020;23.094;2023-02-21T04:51:07;97703.81;;;1.65;99.24
22755;BME280;11544;42.020;23.094;2023-02-21T04:53:45;97711.34;;;1.48;99.07
22755;BME280;11544;42.020;23.094;2023-02-21T04:56:14;97706.09;;;1.33;100.00
22755;BME280;11544;42.020;23.094;2023-02-21T04:58:41;97706.19;;;1.42;100.00
22755;BME280;11544;42.020;23.094;2023-02-21T05:05:14;97701.31;;;0.83;100.00
22755;BME280;11544;42.020;23.094;2023-02-21T05:07:44;97704.72;;;0.82;100.00
22755;BME280;11544;42.020;23.094;2023-02-21T05:10:16;97701.78;;;1.32;100.00
22755;BME280;11544;42.020;23.094;2023-02-21T05:13:09;97701.25;;;0.77;100.00
22755;BME280;11544;42.020;23.094;2023-02-21T05:15:50;97711.69;;;0.92;100.00
22755;BME280;11544;42.020;23.094;2023-02-21T05:18:42;97707.75;;;1.26;100.00
22755;BME280;11544;42.020;23.094;2023-02-21T05:23:47;97697.31;;;1.10;100.00
22755;BME280;11544;42.020;23.094;2023-02-21T05:26:31;97704.41;;;1.37;100.00
22755;BME280;11544;42.020;23.094;2023-02-21T05:29:09;97694.03;;;1.24;100.00
22755;BME280;11544;42.020;23.094;2023-02-21T05:31:42;97688.69;;;1.03;100.00
22755;BME280;11544;42.020;23.094;2023-02-21T05:34:09;97683.13;;;1.52;100.00
22755;BME280;11544;42.020;23.094;2023-02-21T05:36:39;97687.56;;;1.74;100.00
22755;BME280;11544;42.020;23.094;2023-02-21T06:00:45;97719.66;;;2.35;100.00
22755;BME280;11544;42.020;23.094;2023-02-21T06:03:15;97702.72;;;4.39;93.28
22755;BME280;11544;42.020;23.094;2023-02-21T06:05:42;97696.81;;;3.60;87.78
22755;BME280;11544;42.020;23.094;2023-02-21T06:08:09;97706.25;;;3.60;85.02
22755;BME280;11544;42.020;23.094;2023-02-21T06:10:39;97707.94;;;4.06;83.71
22755;BME280;11544;42.020;23.094;2023-02-21T06:13:06;97720.03;;;3.80;81.39
22755;BME280;11544;42.020;23.094;2023-02-21T06:15:33;97702.28;;;5.25;79.20
22755;BME280;11544;42.020;23.094;2023-02-21T06:18:00;97713.00;;;4.50;77.30
22755;BME280;11544;42.020;23.094;2023-02-21T06:20:27;97729.34;;;4.46;75.89
22755;BME280;11544;42.020;23.094;2023-02-21T06:22:54;97723.97;;;4.98;73.28
22755;BME280;11544;42.020;23.094;2023-02-21T06:25:21;97725.41;;;5.45;69.93
22755;BME280;11544;42.020;23.094;2023-02-21T06:27:48;97725.81;;;4.76;69.01
22755;BME280;11544;42.020;23.094;2023-02-21T06:30:15;97725.88;;;6.03;69.71
22755;BME280;11544;42.020;23.094;2023-02-21T06:32:42;97731.09;;;5.95;67.99
22755;BME280;11544;42.020;23.094;2023-02-21T06:35:11;97716.16;;;6.23;65.84
22755;BME280;11544;42.020;23.094;2023-02-21T06:37:38;97717.25;;;6.01;67.17
22755;BME280;11544;42.020;23.094;2023-02-21T06:40:06;97726.38;;;5.29;67.16
22755;BME280;11544;42.020;23.094;2023-02-21T06:42:33;97723.88;;;5.18;67.60
22755;BME280;11544;42.020;23.094;2023-02-21T06:45:00;97730.84;;;5.08;70.35
22755;BME280;11544;42.020;23.094;2023-02-21T06:47:27;97724.38;;;5.71;66.52
22755;BME280;11544;42.020;23.094;2023-02-21T06:49:54;97732.81;;;4.43;70.57
22755;BME280;11544;42.020;23.094;2023-02-21T06:52:22;97729.47;;;3.97;73.49
22755;BME280;11544;42.020;23.094;2023-02-21T06:54:51;97721.88;;;5.57;68.83
22755;BME280;11544;42.020;23.094;2023-02-21T06:57:18;97724.25;;;4.11;72.41
22755;BME280;11544;42.020;23.094;2023-02-21T06:59:49;97720.75;;;5.95;70.71
22755;BME280;11544;42.020;23.094;2023-02-21T07:02:18;97705.22;;;6.75;64.68
22755;BME280;11544;42.020;23.094;2023-02-21T07:04:46;97711.03;;;6.19;64.17
22755;BME280;11544;42.020;23.094;2023-02-21T07:07:14;97718.66;;;6.34;65.00
22755;BME280;11544;42.020;23.094;2023-02-21T07:09:42;97719.63;;;6.98;61.70
22755;BME280;11544;42.020;23.094;2023-02-21T07:12:09;97707.78;;;6.78;62.42
22755;BME280;11544;42.020;23.094;2023-02-21T07:14:37;97709.03;;;5.51;64.21
22755;BME280;11544;42.020;23.094;2023-02-21T07:17:07;97704.69;;;7.17;61.49
22755;BME280;11544;42.020;23.094;2023-02-21T07:19:34;97699.38;;;7.25;59.94
22755;BME280;11544;42.020;23.094;2023-02-21T07:22:01;97695.34;;;7.64;58.99
22755;BME280;11544;42.020;23.094;2023-02-21T07:24:28;97683.34;;;7.57;58.09
22755;BME280;11544;42.020;23.094;2023-02-21T07:27:02;97692.88;;;6.25;60.56
22755;BME280;11544;42.020;23.094;2023-02-21T07:29:30;97683.41;;;7.54;61.12
22755;BME280;11544;42.020;23.094;2023-02-21T07:31:57;97694.47;;;6.36;62.38
22755;BME280;11544;42.020;23.094;2023-02-21T07:34:25;97687.88;;;6.08;63.92
22755;BME280;11544;42.020;23.094;2023-02-21T07:36:52;97675.75;;;7.96;59.71
22755;BME280;11544;42.020;23.094;2023-02-21T07:39:19;97670.47;;;8.03;57.51
22755;BME280;11544;42.020;23.094;2023-02-21T07:41:46;97672.44;;;6.73;59.76
22755;BME280;11544;42.020;23.094;2023-02-21T07:44:14;97674.13;;;6.75;62.97
22755;BME280;11544;42.020;23.094;2023-02-21T07:46:41;97674.84;;;6.87;60.45
22755;BME280;11544;42.020;23.094;2023-02-21T07:49:15;97655.66;;;7.59;61.35
22755;BME280;11544;42.020;23.094;2023-02-21T07:51:43;97657.66;;;7.93;58.41
22755;BME280;11544;42.020;23.094;2023-02-21T07:54:10;97648.34;;;7.81;57.03
22755;BME280;11544;42.020;23.094;2023-02-21T07:56:46;97653.19;;;7.51;58.21
22755;BME280;11544;42.020;23.094;2023-02-21T07:59:16;97658.72;;;7.27;60.23
22755;BME280;11544;42.020;23.094;2023-02-21T08:01:43;97649.44;;;8.17;57.50
22755;BME280;11544;42.020;23.094;2023-02-21T08:04:11;97646.78;;;8.65;56.61
22755;BME280;11544;42.020;23.094;2023-02-21T08:06:41;97640.22;;;8.01;57.35
22755;BME280;11544;42.020;23.094;2023-02-21T08:09:09;97644.59;;;7.96;57.70
22755;BME280;11544;42.020;23.094;2023-02-21T08:11:36;97641.22;;;7.94;57.04
22755;BME280;11544;42.020;23.094;2023-02-21T08:14:06;97635.97;;;7.46;59.82
22755;BME280;11544;42.020;23.094;2023-02-21T08:16:33;97629.47;;;7.71;59.04
22755;BME280;11544;42.020;23.094;2023-02-21T08:19:00;97629.56;;;9.00;57.33
22755;BME280;11544;42.020;23.094;2023-02-21T08:21:33;97611.75;;;8.38;56.87
22755;BME280;11544;42.020;23.094;2023-02-21T08:24:03;97606.22;;;8.97;57.56
22755;BME280;11544;42.020;23.094;2023-02-21T08:26:34;97622.16;;;7.93;56.87
22755;BME280;11544;42.020;23.094;2023-02-21T08:29:04;97619.50;;;8.43;57.50
22755;BME280;11544;42.020;23.094;2023-02-21T08:31:35;97614.91;;;8.96;57.67
22755;BME280;11544;42.020;23.094;2023-02-21T08:34:03;97604.72;;;9.24;55.09
22755;BME280;11544;42.020;23.094;2023-02-21T08:36:38;97594.00;;;10.04;54.17
22755;BME280;11544;42.020;23.094;2023-02-21T08:39:07;97593.50;;;9.57;53.52
22755;BME280;11544;42.020;23.094;2023-02-21T08:41:42;97595.19;;;9.23;55.16
22755;BME280;11544;42.020;23.094;2023-02-21T08:44:11;97585.88;;;9.50;56.50
22755;BME280;11544;42.020;23.094;2023-02-21T08:46:39;97586.75;;;9.84;53.96
22755;BME280;11544;42.020;23.094;2023-02-21T08:49:07;97576.44;;;10.12;53.73
22755;BME280;11544;42.020;23.094;2023-02-21T08:51:35;97572.22;;;10.08;53.28
22755;BME280;11544;42.020;23.094;2023-02-21T08:54:02;97575.59;;;9.44;54.19
22755;BME280;11544;42.020;23.094;2023-02-21T08:56:30;97561.78;;;10.69;53.26
22755;BME280;11544;42.020;23.094;2023-02-21T08:58:57;97558.28;;;10.98;52.00
22755;BME280;11544;42.020;23.094;2023-02-21T09:01:31;97563.03;;;9.94;53.82
22755;BME280;11544;42.020;23.094;2023-02-21T09:03:59;97557.03;;;10.81;51.76
22755;BME280;11544;42.020;23.094;2023-02-21T09:06:26;97556.91;;;10.27;54.03
22755;BME280;11544;42.020;23.094;2023-02-21T09:08:56;97558.63;;;10.28;53.84
22755;BME280;11544;42.020;23.094;2023-02-21T09:11:24;97545.88;;;11.06;53.21
22755;BME280;11544;42.020;23.094;2023-02-21T09:13:51;97554.81;;;10.08;53.48
22755;BME280;11544;42.020;23.094;2023-02-21T09:16:20;97542.19;;;10.55;52.98
22755;BME280;11544;42.020;23.094;2023-02-21T09:18:54;97538.22;;;10.72;52.98
22755;BME280;11544;42.020;23.094;2023-02-21T09:21:27;97524.53;;;11.20;51.33
22755;BME280;11544;42.020;23.094;2023-02-21T09:23:56;97525.19;;;10.72;51.58
22755;BME280;11544;42.020;23.094;2023-02-21T09:26:25;97528.19;;;11.14;51.13
22755;BME280;11544;42.020;23.094;2023-02-21T09:28:52;97516.94;;;11.64;50.28
22755;BME280;11544;42.020;23.094;2023-02-21T09:31:23;97516.03;;;11.40;50.34
22755;BME280;11544;42.020;23.094;2023-02-21T09:33:54;97514.81;;;11.25;49.96
22755;BME280;11544;42.020;23.094;2023-02-21T09:36:24;97499.53;;;11.39;50.04
22755;BME280;11544;42.020;23.094;2023-02-21T09:38:51;97497.78;;;12.14;48.59
22755;BME280;11544;42.020;23.094;2023-02-21T09:41:18;97490.31;;;11.79;49.83
22755;BME280;11544;42.020;23.094;2023-02-21T09:43:48;97483.09;;;11.86;50.13
22755;BME280;11544;42.020;23.094;2023-02-21T09:48:52;97472.88;;;12.73;48.58
22755;BME280;11544;42.020;23.094;2023-02-21T09:51:19;97454.88;;;12.65;47.46
22755;BME280;11544;42.020;23.094;2023-02-21T09:53:48;97450.56;;;12.64;49.47
22755;BME280;11544;42.020;23.094;2023-02-21T09:56:30;97447.25;;;13.23;47.17
22755;BME280;11544;42.020;23.094;2023-02-21T09:59:00;97446.75;;;12.93;47.60
22755;BME280;11544;42.020;23.094;2023-02-21T10:01:33;97441.88;;;13.26;46.75
22755;BME280;11544;42.020;23.094;2023-02-21T10:10:13;97427.59;;;12.92;46.01
22755;BME280;11544;42.020;23.094;2023-02-21T10:12:53;97415.94;;;12.79;46.40
22755;BME280;11544;42.020;23.094;2023-02-21T10:18:10;97399.09;;;13.48;45.25
22755;BME280;11544;42.020;23.094;2023-02-21T10:20:50;97398.97;;;13.30;46.54
22755;BME280;11544;42.020;23.094;2023-02-21T10:23:23;97384.09;;;13.10;45.87
22755;BME280;11544;42.020;23.094;2023-02-21T10:26:00;97381.06;;;13.61;46.57
22755;BME280;11544;42.020;23.094;2023-02-21T10:28:31;97384.13;;;14.27;44.08
22755;BME280;11544;42.020;23.094;2023-02-21T10:31:14;97372.97;;;14.77;42.53
22755;BME280;11544;42.020;23.094;2023-02-21T10:33:49;97366.41;;;14.86;42.94
22755;BME280;11544;42.020;23.094;2023-02-21T10:36:19;97361.38;;;14.45;44.15
22755;BME280;11544;42.020;23.094;2023-02-21T10:39:03;97361.84;;;14.72;43.37
22755;BME280;11544;42.020;23.094;2023-02-21T10:41:38;97354.75;;;14.74;43.57
22755;BME280;11544;42.020;23.094;2023-02-21T10:44:17;97349.38;;;14.41;43.96
22755;BME280;11544;42.020;23.094;2023-02-21T10:47:07;97338.16;;;14.91;41.73
22755;BME280;11544;42.020;23.094;2023-02-21T10:49:43;97333.78;;;14.74;42.12
22755;BME280;11544;42.020;23.094;2023-02-21T10:52:17;97325.97;;;14.55;42.42
22755;BME280;11544;42.020;23.094;2023-02-21T10:55:06;97320.25;;;14.82;42.42
22755;BME280;11544;42.020;23.094;2023-02-21T10:57:56;97317.13;;;15.09;42.44
22755;BME280;11544;42.020;23.094;2023-02-21T11:00:36;97307.47;;;15.09;42.83
22755;BME280;11544;42.020;23.094;2023-02-21T11:03:26;97301.94;;;14.98;43.64
22755;BME280;11544;42.020;23.094;2023-02-21T11:05:56;97289.44;;;15.36;40.33
22755;BME280;11544;42.020;23.094;2023-02-21T11:08:51;97281.81;;;15.48;40.66
22755;BME280;11544;42.020;23.094;2023-02-21T11:11:41;97275.53;;;15.66;39.87
22755;BME280;11544;42.020;23.094;2023-02-21T11:16:45;97266.47;;;15.56;40.58
22755;BME280;11544;42.020;23.094;2023-02-21T11:19:45;97273.63;;;15.70;41.87
22755;BME280;11544;42.020;23.094;2023-02-21T11:22:13;97267.25;;;15.58;40.21
22755;BME280;11544;42.020;23.094;2023-02-21T11:24:58;97260.84;;;15.30;39.97
22755;BME280;11544;42.020;23.094;2023-02-21T11:27:29;97250.28;;;15.63;40.70
22755;BME280;11544;42.020;23.094;2023-02-21T11:29:58;97243.00;;;16.16;40.73
22755;BME280;11544;42.020;23.094;2023-02-21T11:32:32;97236.22;;;16.12;38.92
22755;BME280;11544;42.020;23.094;2023-02-21T11:35:07;97229.63;;;15.89;39.41
22755;BME280;11544;42.020;23.094;2023-02-21T11:37:58;97221.75;;;16.35;38.97
22755;BME280;11544;42.020;23.094;2023-02-21T11:40:32;97218.34;;;16.78;38.89
22755;BME280;11544;42.020;23.094;2023-02-21T11:43:43;97206.91;;;16.93;39.10
22755;BME280;11544;42.020;23.094;2023-02-21T11:46:45;97209.34;;;16.82;38.20
22755;BME280;11544;42.020;23.094;2023-02-21T11:51:58;97192.41;;;17.14;38.16
22755;BME280;11544;42.020;23.094;2023-02-21T11:54:28;97189.19;;;17.38;38.83
22755;BME280;11544;42.020;23.094;2023-02-21T11:59:58;97172.00;;;17.60;37.16
22755;BME280;11544;42.020;23.094;2023-02-21T12:02:41;97171.75;;;17.50;37.53
22755;BME280;11544;42.020;23.094;2023-02-21T12:08:15;97159.19;;;17.68;38.23
22755;BME280;11544;42.020;23.094;2023-02-21T12:14:03;97150.56;;;17.93;37.43
22755;BME280;11544;42.020;23.094;2023-02-21T12:20:02;97133.34;;;17.87;36.98
22755;BME280;11544;42.020;23.094;2023-02-21T12:22:59;97138.84;;;17.97;38.80
22755;BME280;11544;42.020;23.094;2023-02-21T12:31:39;97107.97;;;18.25;36.64
22755;BME280;11544;42.020;23.094;2023-02-21T12:42:48;97082.34;;;18.52;36.18
22755;BME280;11544;42.020;23.094;2023-02-21T12:51:17;97058.25;;;18.57;34.86
22755;BME280;11544;42.020;23.094;2023-02-21T12:54:08;97058.78;;;18.62;35.16
22755;BME280;11544;42.020;23.094;2023-02-21T12:59:24;97052.66;;;18.49;35.36
22755;BME280;11544;42.020;23.094;2023-02-21T13:02:14;97047.81;;;18.55;34.58
22755;BME280;11544;42.020;23.094;2023-02-21T13:05:04;97036.28;;;18.69;33.93
22755;BME280;11544;42.020;23.094;2023-02-21T13:07:58;97042.00;;;18.50;34.19
22755;BME280;11544;42.020;23.094;2023-02-21T13:13:27;97031.13;;;18.42;33.87
22755;BME280;11544;42.020;23.094;2023-02-21T13:16:01;97032.59;;;18.46;33.36
22755;BME280;11544;42.020;23.094;2023-02-21T13:18:45;97022.38;;;18.41;33.88
22755;BME280;11544;42.020;23.094;2023-02-21T13:24:01;97010.09;;;18.66;32.75
22755;BME280;11544;42.020;23.094;2023-02-21T13:26:52;97014.84;;;18.74;32.75
22755;BME280;11544;42.020;23.094;2023-02-21T13:29:31;97015.03;;;18.71;33.44
22755;BME280;11544;42.020;23.094;2023-02-21T13:32:10;97002.84;;;18.94;32.83
22755;BME280;11544;42.020;23.094;2023-02-21T13:34:47;97004.75;;;18.55;32.77
22755;BME280;11544;42.020;23.094;2023-02-21T13:37:23;97002.69;;;18.71;32.80
22755;BME280;11544;42.020;23.094;2023-02-21T13:39:58;97005.09;;;18.74;32.79
22755;BME280;11544;42.020;23.094;2023-02-21T13:42:37;97004.13;;;18.75;32.77
22755;BME280;11544;42.020;23.094;2023-02-21T13:53:18;96996.06;;;18.78;32.18
22755;BME280;11544;42.020;23.094;2023-02-21T13:58:37;96985.63;;;18.51;33.37
22755;BME280;11544;42.020;23.094;2023-02-21T14:01:14;96983.81;;;18.65;31.77
22755;BME280;11544;42.020;23.094;2023-02-21T14:03:42;96985.88;;;18.72;31.63
22755;BME280;11544;42.020;23.094;2023-02-21T14:08:48;96982.31;;;18.60;32.21
22755;BME280;11544;42.020;23.094;2023-02-21T14:11:22;96977.13;;;18.72;31.50
22755;BME280;11544;42.020;23.094;2023-02-21T14:13:55;96974.81;;;18.67;31.21
22755;BME280;11544;42.020;23.094;2023-02-21T14:16:34;96969.94;;;18.74;30.97
22755;BME280;11544;42.020;23.094;2023-02-21T14:19:09;96971.78;;;18.60;31.36
22755;BME280;11544;42.020;23.094;2023-02-21T14:24:18;96966.38;;;18.62;31.13
22755;BME280;11544;42.020;23.094;2023-02-21T14:26:53;96967.22;;;18.62;30.83
22755;BME280;11544;42.020;23.094;2023-02-21T14:29:35;96960.09;;;18.39;31.25
22755;BME280;11544;42.020;23.094;2023-02-21T14:34:40;96957.38;;;18.40;31.12
22755;BME280;11544;42.020;23.094;2023-02-21T14:37:37;96951.69;;;18.34;30.47
22755;BME280;11544;42.020;23.094;2023-02-21T14:48:22;96946.34;;;18.47;29.95
22755;BME280;11544;42.020;23.094;2023-02-21T14:53:50;96944.38;;;18.37;30.38
22755;BME280;11544;42.020;23.094;2023-02-21T15:01:55;96936.06;;;18.31;29.44
22755;BME280;11544;42.020;23.094;2023-02-21T15:07:14;96933.63;;;18.28;29.82
22755;BME280;11544;42.020;23.094;2023-02-21T15:09:45;96934.69;;;18.25;29.91
22755;BME280;11544;42.020;23.094;2023-02-21T15:12:31;96924.97;;;18.26;29.89
22755;BME280;11544;42.020;23.094;2023-02-21T15:15:01;96925.63;;;18.16;29.73
22755;BME280;11544;42.020;23.094;2023-02-21T15:17:28;96933.22;;;18.21;29.35
22755;BME280;11544;42.020;23.094;2023-02-21T15:20:14;96930.06;;;18.16;29.58
22755;BME280;11544;42.020;23.094;2023-02-21T15:22:42;96932.38;;;18.20;29.24
22755;BME280;11544;42.020;23.094;2023-02-21T15:25:13;96929.34;;;18.01;29.57
22755;BME280;11544;42.020;23.094;2023-02-21T15:35:32;96930.91;;;17.78;33.85
22755;BME280;11544;42.020;23.094;2023-02-21T15:38:03;96932.81;;;17.63;32.91
22755;BME280;11544;42.020;23.094;2023-02-21T15:40:34;96930.69;;;17.43;33.32
22755;BME280;11544;42.020;23.094;2023-02-21T15:43:02;96933.91;;;17.21;33.81
22755;BME280;11544;42.020;23.094;2023-02-21T15:45:45;96939.78;;;17.11;34.14
22755;BME280;11544;42.020;23.094;2023-02-21T15:48:19;96940.38;;;16.75;35.11
22755;BME280;11544;42.020;23.094;2023-02-21T15:50:47;96946.81;;;16.57;35.70
22755;BME280;11544;42.020;23.094;2023-02-21T15:53:22;96941.19;;;16.48;35.77
22755;BME280;11544;42.020;23.094;2023-02-21T15:55:51;96942.88;;;16.49;35.71
22755;BME280;11544;42.020;23.094;2023-02-21T15:58:26;96942.78;;;16.51;35.39
22755;BME280;11544;42.020;23.094;2023-02-21T16:01:09;96947.69;;;16.43;36.04
22755;BME280;11544;42.020;23.094;2023-02-21T16:03:39;96949.31;;;16.17;36.93
22755;BME280;11544;42.020;23.094;2023-02-21T16:08:53;96955.63;;;15.71;37.97
22755;BME280;11544;42.020;23.094;2023-02-21T17:49:49;97056.84;;;12.95;41.83
22755;BME280;11544;42.020;23.094;2023-02-21T17:52:17;97051.78;;;12.73;42.34
22755;BME280;11544;42.020;23.094;2023-02-21T17:54:46;97045.06;;;12.86;42.34
22755;BME280;11544;42.020;23.094;2023-02-21T17:57:54;97051.50;;;12.79;42.46
22755;BME280;11544;42.020;23.094;2023-02-21T18:30:30;97066.41;;;11.36;46.20
22755;BME280;11544;42.020;23.094;2023-02-21T18:32:57;97082.44;;;11.48;46.03